< < Back
Terminal Aerodrome Forecast


Current Version              Previous Versions:   1  2  3  4  5  6  7  8  9  

Terminal Aerodrome Forecast

176
FTUS44 KHUN 201720
TAFHSV
TAF
KHSV 201720Z 2018/2118 01005KT P6SM SKC
     FM210000 VRB04KT P6SM FEW250
     FM210900 04005KT 5SM BR FEW250
     FM211400 08005KT P6SM FEW250=

Latest METAR

669
SAUS80 KWBC 210500 RRA
MTRHSV
METAR KHSV 210453Z 00000KT 10SM CLR 03/M02 A3023 RMK AO2 SLP237
T00331022


USA.gov is the U.S. government's official web portal to all federal, state and local government web resources and services.